createdAt,value
2022-08-09T00:00:04.896Z,17.30
2022-08-09T00:02:49.024Z,17.20
2022-08-09T00:06:17.290Z,17.10
2022-08-09T00:08:10.862Z,17.10
2022-08-09T00:10:40.319Z,17.00
2022-08-09T00:13:17.125Z,16.90
2022-08-09T00:15:59.554Z,16.90
2022-08-09T00:18:35.030Z,16.60
2022-08-09T00:21:05.293Z,16.70
2022-08-09T00:23:55.055Z,16.60
2022-08-09T00:26:32.128Z,16.70
2022-08-09T00:29:02.625Z,16.60
2022-08-09T00:31:59.948Z,16.70
2022-08-09T00:34:21.232Z,16.60
2022-08-09T00:36:50.054Z,16.60
2022-08-09T00:40:13.263Z,16.60
2022-08-09T00:44:14.504Z,16.50
2022-08-09T00:44:56.906Z,16.30
2022-08-09T00:47:26.565Z,16.10
2022-08-09T00:50:01.262Z,16.10
2022-08-09T00:52:31.114Z,16.00
2022-08-09T00:55:01.191Z,15.90
2022-08-09T00:57:34.411Z,15.90
2022-08-09T01:00:21.926Z,16.00
2022-08-09T01:03:14.913Z,16.20
2022-08-09T01:05:54.268Z,16.10
2022-08-09T01:08:33.483Z,16.10
2022-08-09T01:11:21.264Z,15.90
2022-08-09T01:13:59.866Z,15.90
2022-08-09T01:16:35.961Z,15.90
2022-08-09T01:19:40.075Z,15.80
2022-08-09T01:22:48.224Z,15.70
2022-08-09T01:25:41.970Z,15.60
2022-08-09T01:28:19.995Z,15.50
2022-08-09T01:30:54.939Z,15.60
2022-08-09T01:33:30.297Z,15.40
2022-08-09T01:36:05.269Z,15.30
2022-08-09T01:38:40.597Z,15.30
2022-08-09T01:41:17.907Z,15.30
2022-08-09T01:43:52.775Z,15.20
2022-08-09T01:46:26.876Z,15.10
2022-08-09T01:49:09.639Z,15.10
2022-08-09T01:51:44.398Z,15.10
2022-08-09T01:54:23.955Z,15.20
2022-08-09T01:56:53.417Z,15.30
2022-08-09T01:59:24.295Z,15.30
2022-08-09T02:01:58.055Z,15.10
2022-08-09T02:04:29.266Z,15.20
2022-08-09T02:07:15.300Z,15.20
2022-08-09T02:09:59.261Z,15.20
2022-08-09T02:12:31.230Z,15.10
2022-08-09T02:15:07.561Z,15.00
2022-08-09T02:18:09.290Z,15.00
2022-08-09T02:20:32.933Z,14.90
2022-08-09T02:23:07.418Z,14.90
2022-08-09T02:25:42.716Z,14.80
2022-08-09T02:28:24.255Z,14.80
2022-08-09T02:31:05.816Z,14.90
2022-08-09T02:34:07.230Z,14.80
2022-08-09T02:36:34.640Z,14.80
2022-08-09T02:39:14.299Z,14.70
2022-08-09T02:41:55.371Z,14.70
2022-08-09T02:44:35.669Z,14.60
2022-08-09T02:47:12.195Z,14.50
2022-08-09T02:50:01.643Z,14.50
2022-08-09T02:52:37.866Z,14.40
2022-08-09T02:55:20.684Z,14.40
2022-08-09T02:58:00.358Z,14.40
2022-08-09T03:00:41.783Z,14.40
2022-08-09T03:04:12.823Z,14.20
2022-08-09T03:06:19.673Z,14.20
2022-08-09T03:08:52.568Z,14.10
2022-08-09T03:11:29.637Z,13.90
2022-08-09T03:14:14.119Z,13.90
2022-08-09T03:16:48.024Z,13.90
2022-08-09T03:19:58.470Z,13.90
2022-08-09T03:22:12.407Z,14.00
2022-08-09T03:24:52.382Z,14.00
2022-08-09T03:27:44.658Z,14.10
2022-08-09T03:30:29.833Z,14.10
2022-08-09T03:33:17.876Z,14.00
2022-08-09T03:36:13.936Z,13.90
2022-08-09T03:38:42.637Z,13.90
2022-08-09T03:41:14.707Z,13.80
2022-08-09T03:44:03.401Z,13.90
2022-08-09T03:46:32.888Z,13.90
2022-08-09T03:49:08.204Z,13.80
2022-08-09T03:51:58.854Z,13.80
2022-08-09T03:54:34.342Z,13.80
2022-08-09T03:57:18.681Z,13.80
2022-08-09T03:59:54.211Z,13.80
2022-08-09T04:02:27.988Z,13.80
2022-08-09T04:04:59.284Z,13.70
2022-08-09T04:07:47.936Z,13.70
2022-08-09T04:10:23.981Z,13.70
2022-08-09T04:13:00.841Z,13.60
2022-08-09T04:15:51.933Z,13.50
2022-08-09T04:18:19.497Z,13.60
2022-08-09T04:20:50.129Z,13.60
2022-08-09T04:23:23.333Z,13.60
2022-08-09T04:25:54.267Z,13.70
2022-08-09T04:28:31.417Z,13.70
2022-08-09T04:31:05.839Z,13.60
2022-08-09T04:33:52.470Z,13.60
2022-08-09T04:36:28.251Z,13.60
2022-08-09T04:39:01.436Z,13.50
2022-08-09T04:41:32.942Z,13.60
2022-08-09T04:44:07.274Z,13.60
2022-08-09T04:46:57.132Z,13.70
2022-08-09T04:49:40.840Z,13.70
2022-08-09T04:52:18.574Z,13.80
2022-08-09T04:54:55.577Z,13.80
2022-08-09T04:57:25.120Z,13.80
2022-08-09T04:59:56.076Z,13.80
2022-08-09T05:02:27.521Z,13.90
2022-08-09T05:04:56.418Z,14.00
2022-08-09T05:07:29.224Z,14.00
2022-08-09T05:10:01.769Z,14.00
2022-08-09T05:12:32.997Z,14.10
2022-08-09T05:15:11.678Z,14.10
2022-08-09T05:18:55.540Z,14.10
2022-08-09T05:20:39.586Z,14.20
2022-08-09T05:23:56.597Z,14.30
2022-08-09T05:25:56.954Z,14.40
2022-08-09T05:28:27.173Z,14.50
2022-08-09T05:30:55.267Z,14.40
2022-08-09T05:33:26.568Z,14.50
2022-08-09T05:36:00.995Z,14.60
2022-08-09T05:38:29.116Z,14.60
2022-08-09T05:41:00.638Z,14.70
2022-08-09T05:43:32.037Z,14.80
2022-08-09T05:46:00.460Z,14.80
2022-08-09T05:48:33.296Z,14.90
2022-08-09T05:51:42.573Z,15.10
2022-08-09T05:53:57.628Z,15.20
2022-08-09T05:56:28.804Z,15.30
2022-08-09T05:58:59.144Z,15.40
2022-08-09T06:01:33.492Z,15.50
2022-08-09T06:04:05.834Z,15.60
2022-08-09T06:06:34.640Z,15.80
2022-08-09T06:09:03.385Z,15.80
2022-08-09T06:11:40.933Z,15.90
2022-08-09T06:14:25.762Z,16.00
2022-08-09T06:16:55.229Z,16.10
2022-08-09T06:19:25.338Z,16.20
2022-08-09T06:21:58.738Z,16.20
2022-08-09T06:24:27.959Z,16.40
2022-08-09T06:26:58.112Z,16.40
2022-08-09T06:29:26.891Z,16.50
2022-08-09T06:32:08.874Z,16.60
2022-08-09T06:34:43.885Z,16.70
2022-08-09T06:37:11.877Z,16.80
2022-08-09T06:39:57.526Z,16.90
2022-08-09T06:42:30.763Z,17.10
2022-08-09T06:45:20.461Z,17.30
2022-08-09T06:47:57.817Z,17.40
2022-08-09T06:50:31.121Z,17.50
2022-08-09T06:53:00.824Z,17.60
2022-08-09T06:55:31.858Z,17.70
2022-08-09T06:58:04.391Z,17.80
2022-08-09T07:00:50.102Z,17.90
2022-08-09T07:03:26.945Z,18.00
2022-08-09T07:06:03.998Z,18.20
2022-08-09T07:08:37.238Z,18.30
2022-08-09T07:11:07.814Z,18.50
2022-08-09T07:14:04.358Z,18.70
2022-08-09T07:16:42.254Z,18.90
2022-08-09T07:19:15.236Z,19.20
2022-08-09T07:21:55.961Z,19.30
2022-08-09T07:24:32.602Z,19.50
2022-08-09T07:27:10.921Z,19.60
2022-08-09T07:29:56.968Z,19.70
2022-08-09T07:32:32.196Z,19.90
2022-08-09T07:35:10.402Z,20.00
2022-08-09T07:37:44.519Z,20.20
2022-08-09T07:40:17.520Z,20.40
2022-08-09T07:42:55.711Z,20.60
2022-08-09T07:45:40.018Z,20.70
2022-08-09T07:48:22.375Z,20.90
2022-08-09T07:51:03.053Z,21.00
2022-08-09T07:54:04.310Z,21.30
2022-08-09T07:56:30.828Z,21.50
2022-08-09T07:58:59.759Z,21.70
2022-08-09T08:01:34.181Z,21.80
2022-08-09T08:04:03.223Z,22.00
2022-08-09T08:06:32.668Z,22.10
2022-08-09T08:09:05.342Z,22.30
2022-08-09T08:12:10.283Z,22.50
2022-08-09T08:14:34.503Z,22.70
2022-08-09T08:17:08.749Z,22.90
2022-08-09T08:19:40.277Z,23.00
2022-08-09T08:22:12.449Z,23.20
2022-08-09T08:24:42.227Z,23.40
2022-08-09T08:27:17.206Z,23.60
2022-08-09T08:29:49.903Z,23.80
2022-08-09T08:32:28.893Z,24.00
2022-08-09T08:34:58.863Z,24.10
2022-08-09T08:37:40.743Z,24.30
2022-08-09T08:40:12.088Z,24.40
2022-08-09T08:42:43.647Z,24.60
2022-08-09T08:45:18.897Z,24.70
2022-08-09T08:48:10.097Z,24.80
2022-08-09T08:50:38.944Z,25.00
2022-08-09T08:53:07.576Z,25.10
2022-08-09T08:55:40.086Z,25.20
2022-08-09T08:58:12.126Z,25.30
2022-08-09T09:00:42.791Z,25.40
2022-08-09T09:03:32.886Z,25.50
2022-08-09T09:06:07.341Z,25.60
2022-08-09T09:08:42.647Z,25.70
2022-08-09T09:11:17.300Z,25.70
2022-08-09T09:13:56.971Z,25.80
2022-08-09T09:16:30.419Z,25.90
2022-08-09T09:19:22.565Z,26.00
2022-08-09T09:22:07.734Z,26.00
2022-08-09T09:24:43.492Z,26.10
2022-08-09T09:28:02.974Z,26.20
2022-08-09T09:30:39.818Z,26.40
2022-08-09T09:33:15.283Z,26.50
2022-08-09T09:36:00.646Z,26.80
2022-08-09T09:38:47.138Z,27.00
2022-08-09T09:41:49.061Z,27.00
2022-08-09T09:44:27.818Z,27.00
2022-08-09T09:47:08.354Z,27.20
2022-08-09T09:49:56.095Z,27.30
2022-08-09T09:52:37.409Z,27.30
2022-08-09T09:55:27.851Z,27.30
2022-08-09T09:58:17.318Z,27.30
2022-08-09T10:00:54.519Z,27.40
2022-08-09T10:03:58.201Z,27.40
2022-08-09T10:06:32.222Z,27.60
2022-08-09T10:09:21.853Z,27.50
2022-08-09T10:12:14.474Z,27.60
2022-08-09T10:14:48.440Z,27.60
2022-08-09T10:17:50.853Z,27.60
2022-08-09T10:20:27.330Z,27.70
2022-08-09T10:23:17.211Z,27.80
2022-08-09T10:26:06.378Z,27.90
2022-08-09T10:28:40.391Z,28.00
2022-08-09T10:34:11.162Z,28.20
2022-08-09T10:36:46.740Z,28.10
2022-08-09T10:39:19.965Z,28.00
2022-08-09T10:41:49.550Z,28.20
2022-08-09T10:44:21.581Z,28.40
2022-08-09T10:48:14.473Z,28.50
2022-08-09T10:50:30.904Z,28.60
2022-08-09T10:53:10.074Z,28.70
2022-08-09T10:55:58.390Z,28.80
2022-08-09T10:58:37.443Z,28.90
2022-08-09T11:03:02.186Z,29.00
2022-08-09T11:04:28.072Z,29.00
2022-08-09T11:07:54.946Z,29.30
2022-08-09T11:10:59.836Z,29.50
2022-08-09T11:13:49.787Z,29.60
2022-08-09T11:16:37.798Z,29.70
2022-08-09T11:19:10.327Z,29.60
2022-08-09T11:22:16.596Z,29.90
2022-08-09T11:25:11.822Z,30.10
2022-08-09T11:28:04.880Z,30.30
2022-08-09T11:30:38.235Z,30.40
2022-08-09T11:33:15.432Z,30.40
2022-08-09T11:35:49.539Z,30.50
2022-08-09T11:38:32.543Z,30.50
2022-08-09T11:41:06.210Z,30.40
2022-08-09T11:43:42.844Z,30.40
2022-08-09T11:46:12.358Z,30.50
2022-08-09T11:48:52.249Z,30.60
2022-08-09T11:53:03.500Z,30.60
2022-08-09T11:54:29.032Z,30.50
2022-08-09T11:58:00.891Z,30.70
2022-08-09T12:00:31.101Z,30.80
2022-08-09T12:03:50.715Z,31.00
2022-08-09T12:05:52.413Z,31.00
2022-08-09T12:08:23.557Z,31.20
2022-08-09T12:10:58.821Z,31.20
2022-08-09T12:14:09.318Z,31.20
2022-08-09T12:16:30.489Z,31.10
2022-08-09T12:19:09.957Z,31.10
2022-08-09T12:21:48.762Z,31.10
2022-08-09T12:24:23.727Z,31.10
2022-08-09T12:28:59.123Z,31.10
2022-08-09T12:30:00.145Z,31.10
2022-08-09T12:32:45.565Z,31.10
2022-08-09T12:35:19.395Z,31.10
2022-08-09T12:37:53.609Z,31.00
2022-08-09T12:40:27.214Z,31.00
2022-08-09T12:42:56.318Z,31.10
2022-08-09T12:45:34.814Z,31.20
2022-08-09T12:48:20.025Z,31.40
2022-08-09T12:51:00.112Z,31.50
2022-08-09T12:53:38.697Z,31.50
2022-08-09T12:56:37.064Z,31.60
2022-08-09T12:59:09.052Z,31.60
2022-08-09T13:01:48.911Z,31.60
2022-08-09T13:04:37.653Z,31.50
2022-08-09T13:07:19.968Z,31.60
2022-08-09T13:10:03.317Z,31.60
2022-08-09T13:12:32.241Z,31.50
2022-08-09T13:15:11.787Z,31.30
2022-08-09T13:18:03.909Z,31.00
2022-08-09T13:20:37.599Z,30.60
2022-08-09T13:24:07.153Z,30.40
2022-08-09T13:26:38.602Z,30.20
2022-08-09T13:29:10.444Z,30.00
2022-08-09T13:32:14.840Z,29.90
2022-08-09T13:34:48.195Z,29.90
2022-08-09T13:37:50.411Z,29.80
2022-08-09T13:41:51.431Z,29.90
2022-08-09T13:42:58.706Z,30.00
2022-08-09T13:45:32.415Z,30.20
2022-08-09T13:48:15.587Z,30.40
2022-08-09T13:50:44.032Z,30.50
2022-08-09T13:53:16.126Z,29.90
2022-08-09T13:55:47.834Z,30.20
2022-08-09T13:58:16.114Z,30.30
2022-08-09T14:00:48.146Z,30.40
2022-08-09T14:04:02.773Z,30.20
2022-08-09T14:06:19.457Z,29.90
2022-08-09T14:08:55.232Z,29.80
2022-08-09T14:11:24.580Z,29.60
2022-08-09T14:14:22.579Z,29.60
2022-08-09T14:16:41.277Z,29.60
2022-08-09T14:19:09.555Z,29.50
2022-08-09T14:21:38.087Z,29.30
2022-08-09T14:24:18.351Z,29.10
2022-08-09T14:26:53.570Z,29.00
2022-08-09T14:30:15.123Z,29.00
2022-08-09T14:32:13.180Z,29.00
2022-08-09T14:34:44.875Z,29.10
2022-08-09T14:37:13.303Z,29.20
2022-08-09T14:39:46.763Z,29.30
2022-08-09T14:42:31.341Z,29.30
2022-08-09T14:46:40.249Z,29.30
2022-08-09T14:47:58.115Z,29.30
2022-08-09T14:50:30.381Z,29.40
2022-08-09T14:52:59.824Z,29.20
2022-08-09T14:55:32.267Z,29.10
2022-08-09T14:58:03.885Z,29.10
2022-08-09T15:00:36.132Z,28.90
2022-08-09T15:03:07.338Z,28.90
2022-08-09T15:05:38.712Z,28.90
2022-08-09T15:08:10.395Z,28.90
2022-08-09T15:10:39.437Z,28.80
2022-08-09T15:13:10.215Z,28.80
2022-08-09T15:15:39.340Z,28.80
2022-08-09T15:18:12.289Z,28.80
2022-08-09T15:22:00.787Z,28.80
2022-08-09T15:24:01.046Z,28.90
2022-08-09T15:26:31.653Z,28.90
2022-08-09T15:29:04.777Z,28.80
2022-08-09T15:31:41.314Z,28.90
2022-08-09T15:34:32.673Z,29.00
2022-08-09T15:37:00.951Z,29.00
2022-08-09T15:39:43.715Z,29.00
2022-08-09T15:42:18.693Z,29.00
2022-08-09T15:44:48.311Z,29.00
2022-08-09T15:47:22.818Z,29.00
2022-08-09T15:50:03.755Z,28.90
2022-08-09T15:52:35.012Z,28.90
2022-08-09T15:55:03.942Z,29.00
2022-08-09T15:57:35.588Z,29.00
2022-08-09T16:00:24.242Z,29.10
2022-08-09T16:02:56.912Z,29.10
2022-08-09T16:05:47.659Z,29.00
2022-08-09T16:08:29.917Z,29.00
2022-08-09T16:10:59.779Z,28.90
2022-08-09T16:14:03.533Z,28.80
2022-08-09T16:16:20.198Z,28.80
2022-08-09T16:18:54.262Z,28.70
2022-08-09T16:21:25.162Z,28.50
2022-08-09T16:23:55.965Z,28.40
2022-08-09T16:26:34.200Z,28.40
2022-08-09T16:29:11.406Z,28.40
2022-08-09T16:32:20.020Z,28.30
2022-08-09T16:34:55.910Z,28.30
2022-08-09T16:37:52.939Z,28.30
2022-08-09T16:40:11.594Z,28.30
2022-08-09T16:42:45.501Z,28.20
2022-08-09T16:45:17.529Z,28.30
2022-08-09T16:48:40.918Z,28.20
2022-08-09T16:50:38.389Z,28.20
2022-08-09T16:53:09.037Z,28.10
2022-08-09T16:55:58.638Z,28.30
2022-08-09T16:58:27.776Z,28.30
2022-08-09T17:00:55.823Z,28.00
2022-08-09T17:03:25.173Z,27.90
2022-08-09T17:06:07.687Z,27.70
2022-08-09T17:09:01.834Z,27.60
2022-08-09T17:11:41.896Z,27.50
2022-08-09T17:14:25.606Z,27.40
2022-08-09T17:17:01.506Z,27.30
2022-08-09T17:20:05.030Z,27.20
2022-08-09T17:22:33.913Z,27.20
2022-08-09T17:25:10.179Z,27.20
2022-08-09T17:27:49.379Z,27.10
2022-08-09T17:30:25.853Z,27.10
2022-08-09T17:32:57.467Z,27.10
2022-08-09T17:35:31.130Z,27.00
2022-08-09T17:38:31.038Z,27.00
2022-08-09T17:40:49.853Z,26.90
2022-08-09T17:43:33.930Z,26.80
2022-08-09T17:46:06.166Z,26.70
2022-08-09T17:48:38.647Z,26.70
2022-08-09T17:51:18.754Z,26.70
2022-08-09T17:53:51.872Z,26.60
2022-08-09T17:56:22.199Z,26.50
2022-08-09T17:58:58.211Z,26.50
2022-08-09T18:01:57.806Z,26.50
2022-08-09T18:04:14.625Z,26.40
2022-08-09T18:06:49.766Z,26.30
2022-08-09T18:09:25.113Z,26.30
2022-08-09T18:12:15.425Z,26.20
2022-08-09T18:14:50.017Z,26.20
2022-08-09T18:17:27.446Z,26.10
2022-08-09T18:20:59.009Z,26.10
2022-08-09T18:23:05.676Z,26.00
2022-08-09T18:25:52.613Z,25.90
2022-08-09T18:30:34.531Z,25.90
2022-08-09T18:31:12.573Z,25.80
2022-08-09T18:33:40.861Z,25.70
2022-08-09T18:36:14.141Z,25.70
2022-08-09T18:39:00.660Z,25.70
2022-08-09T18:41:29.880Z,25.60
2022-08-09T18:44:13.064Z,25.60
2022-08-09T18:46:46.470Z,25.60
2022-08-09T18:49:19.991Z,25.50
2022-08-09T18:51:54.947Z,25.50
2022-08-09T18:54:29.572Z,25.40
2022-08-09T18:57:05.136Z,25.30
2022-08-09T18:59:37.402Z,25.30
2022-08-09T19:02:16.602Z,25.20
2022-08-09T19:04:47.742Z,25.10
2022-08-09T19:07:32.821Z,25.10
2022-08-09T19:10:14.459Z,25.10
2022-08-09T19:12:50.931Z,25.00
2022-08-09T19:15:25.117Z,25.00
2022-08-09T19:17:58.545Z,25.00
2022-08-09T19:20:34.180Z,25.00
2022-08-09T19:23:07.909Z,24.90
2022-08-09T19:26:00.956Z,24.90
2022-08-09T19:28:28.792Z,24.80
2022-08-09T19:30:57.013Z,24.80
2022-08-09T19:33:25.124Z,24.70
2022-08-09T19:35:57.352Z,24.70
2022-08-09T19:38:27.800Z,24.60
2022-08-09T19:41:00.386Z,24.60
2022-08-09T19:44:00.500Z,24.50
2022-08-09T19:46:17.141Z,24.50
2022-08-09T19:50:08.043Z,24.40
2022-08-09T19:51:55.503Z,24.20
2022-08-09T19:54:25.062Z,24.20
2022-08-09T19:56:55.412Z,24.10
2022-08-09T19:59:57.387Z,24.00
2022-08-09T20:02:17.258Z,24.00
2022-08-09T20:05:02.449Z,24.00
2022-08-09T20:07:58.969Z,23.90
2022-08-09T20:10:33.984Z,23.90
2022-08-09T20:13:06.086Z,23.70
2022-08-09T20:16:37.862Z,23.60
2022-08-09T20:18:28.158Z,23.60
2022-08-09T20:20:57.702Z,23.60
2022-08-09T20:23:38.548Z,23.50
2022-08-09T20:26:08.394Z,23.40
2022-08-09T20:28:48.688Z,23.40
2022-08-09T20:31:18.751Z,23.30
2022-08-09T20:33:58.547Z,23.20
2022-08-09T20:36:30.447Z,23.10
2022-08-09T20:40:13.700Z,23.10
2022-08-09T20:41:49.051Z,23.10
2022-08-09T20:44:26.961Z,22.90
2022-08-09T20:46:58.319Z,22.80
2022-08-09T20:49:27.439Z,22.70
2022-08-09T20:51:56.606Z,22.70
2022-08-09T20:54:25.568Z,22.70
2022-08-09T20:56:57.062Z,22.60
2022-08-09T21:00:20.025Z,22.40
2022-08-09T21:02:18.420Z,22.30
2022-08-09T21:05:56.732Z,21.80
2022-08-09T21:07:40.197Z,21.70
2022-08-09T21:10:09.641Z,21.50
2022-08-09T21:12:39.704Z,21.40
2022-08-09T21:15:12.508Z,21.30
2022-08-09T21:18:24.923Z,21.50
2022-08-09T21:20:30.797Z,21.50
2022-08-09T21:23:00.538Z,21.40
2022-08-09T21:25:56.413Z,21.40
2022-08-09T21:28:35.172Z,21.30
2022-08-09T21:31:18.003Z,21.40
2022-08-09T21:33:51.453Z,21.40
2022-08-09T21:36:26.052Z,21.10
2022-08-09T21:39:00.219Z,20.80
2022-08-09T21:42:04.870Z,20.60
2022-08-09T21:44:32.794Z,20.60
2022-08-09T21:47:07.407Z,20.60
2022-08-09T21:49:39.804Z,20.60
2022-08-09T21:52:16.695Z,20.60
2022-08-09T21:55:03.978Z,20.70
2022-08-09T21:57:37.762Z,20.60
2022-08-09T22:00:26.573Z,20.60
2022-08-09T22:03:04.620Z,20.50
2022-08-09T22:05:35.866Z,20.60
2022-08-09T22:08:12.871Z,20.60
2022-08-09T22:11:00.310Z,20.50
2022-08-09T22:13:34.947Z,20.50
2022-08-09T22:16:07.202Z,20.30
2022-08-09T22:18:53.640Z,20.10
2022-08-09T22:21:27.363Z,20.00
2022-08-09T22:24:17.217Z,19.90
2022-08-09T22:26:51.683Z,20.10
2022-08-09T22:29:26.845Z,20.20
2022-08-09T22:32:00.659Z,20.00
2022-08-09T22:34:30.119Z,20.00
2022-08-09T22:36:59.912Z,20.00
2022-08-09T22:39:57.373Z,20.10
2022-08-09T22:42:23.247Z,20.10
2022-08-09T22:48:04.735Z,20.00
2022-08-09T22:48:15.662Z,20.00
2022-08-09T22:50:32.344Z,19.90
2022-08-09T22:53:03.951Z,19.90
2022-08-09T22:56:06.314Z,19.70
2022-08-09T22:58:33.104Z,19.70
2022-08-09T23:01:03.558Z,19.50
2022-08-09T23:04:04.777Z,19.40
2022-08-09T23:06:32.689Z,19.30
2022-08-09T23:09:05.404Z,19.30
2022-08-09T23:11:33.703Z,19.10
2022-08-09T23:14:03.006Z,19.20
2022-08-09T23:16:31.488Z,19.30
2022-08-09T23:18:59.564Z,19.30
2022-08-09T23:21:33.866Z,19.20
2022-08-09T23:24:06.467Z,19.10
2022-08-09T23:26:36.119Z,19.00
2022-08-09T23:29:04.924Z,18.80
2022-08-09T23:31:33.414Z,18.60
2022-08-09T23:34:02.649Z,18.70
2022-08-09T23:36:33.490Z,18.40
2022-08-09T23:39:02.052Z,18.30
2022-08-09T23:41:30.153Z,18.30
2022-08-09T23:43:59.838Z,18.20
2022-08-09T23:46:28.514Z,18.20
2022-08-09T23:48:57.233Z,18.10
2022-08-09T23:51:25.234Z,18.10
2022-08-09T23:54:03.198Z,18.10
2022-08-09T23:56:53.351Z,18.00
2022-08-09T23:59:21.688Z,17.90
